createdAt,value
2022-08-21T00:04:30.352Z,56
2022-08-21T00:10:11.135Z,58
2022-08-21T00:15:52.977Z,48
2022-08-21T00:21:36.619Z,52
2022-08-21T00:27:17.282Z,56
2022-08-21T00:32:58.621Z,54
2022-08-21T00:38:39.490Z,56
2022-08-21T00:44:19.747Z,44
2022-08-21T00:49:59.828Z,58
2022-08-21T00:55:40.089Z,44
2022-08-21T01:01:20.656Z,46
2022-08-21T01:07:01.488Z,56
2022-08-21T01:12:41.646Z,42
2022-08-21T01:18:21.896Z,52
2022-08-21T01:24:02.363Z,48
2022-08-21T01:29:42.833Z,46
2022-08-21T01:35:23.066Z,54
2022-08-21T01:41:03.144Z,54
2022-08-21T01:46:43.269Z,48
2022-08-21T01:52:23.737Z,46
2022-08-21T01:58:03.801Z,46
2022-08-21T02:03:43.898Z,52
2022-08-21T02:09:24.770Z,56
2022-08-21T02:15:08.199Z,58
2022-08-21T02:20:48.432Z,48
2022-08-21T02:26:35.434Z,52
2022-08-21T02:32:16.306Z,44
2022-08-21T02:37:56.470Z,48
2022-08-21T02:43:36.522Z,42
2022-08-21T02:49:16.676Z,56
2022-08-21T02:54:56.821Z,54
2022-08-21T03:00:37.100Z,92
2022-08-21T03:06:17.387Z,44
2022-08-21T03:11:57.588Z,56
2022-08-21T03:17:37.882Z,54
2022-08-21T03:23:20.008Z,56
2022-08-21T03:29:00.316Z,56
2022-08-21T03:34:41.222Z,42
2022-08-21T03:40:21.781Z,58
2022-08-21T03:46:01.862Z,56
2022-08-21T03:51:42.006Z,44
2022-08-21T03:57:22.007Z,54
2022-08-21T04:03:02.080Z,46
2022-08-21T04:08:42.687Z,56
2022-08-21T04:14:23.115Z,44
2022-08-21T04:20:03.326Z,44
2022-08-21T04:25:45.770Z,56
2022-08-21T04:31:26.195Z,40
2022-08-21T04:37:06.885Z,56
2022-08-21T04:42:47.125Z,44
2022-08-21T04:48:27.506Z,54
2022-08-21T04:54:07.770Z,46
2022-08-21T04:59:47.975Z,50
2022-08-21T05:05:28.173Z,50
2022-08-21T05:11:08.628Z,56
2022-08-21T05:16:49.036Z,56
2022-08-21T05:22:29.124Z,44
2022-08-21T05:28:09.489Z,46
2022-08-21T05:33:52.435Z,54
2022-08-21T05:40:24.640Z,54
2022-08-21T05:46:06.966Z,48
2022-08-21T05:51:47.544Z,54
2022-08-21T05:57:28.438Z,44
2022-08-21T06:03:08.851Z,56
2022-08-21T06:08:49.447Z,46
2022-08-21T06:14:29.696Z,54
2022-08-21T06:20:10.281Z,54
2022-08-21T06:25:50.649Z,52
2022-08-21T06:31:31.284Z,48
2022-08-21T06:37:11.387Z,44
2022-08-21T06:42:51.767Z,56
2022-08-21T06:48:32.146Z,52
2022-08-21T06:54:12.334Z,48
2022-08-21T06:59:52.610Z,54
2022-08-21T07:05:33.159Z,48
2022-08-21T07:11:13.823Z,58
2022-08-21T07:16:54.079Z,62
2022-08-21T07:22:38.356Z,54
2022-08-21T07:28:18.323Z,56
2022-08-21T07:33:58.666Z,8
2022-08-21T07:39:39.360Z,2
2022-08-21T07:45:19.973Z,26
2022-08-21T07:51:00.230Z,52
2022-08-21T07:56:44.290Z,42
2022-08-21T08:02:24.026Z,12
2022-08-21T08:08:04.859Z,12
2022-08-21T08:13:44.856Z,18
2022-08-21T08:19:25.247Z,32
2022-08-21T08:25:10.047Z,2
2022-08-21T08:30:56.469Z,24
2022-08-21T08:36:37.366Z,8
2022-08-21T08:42:38.429Z,2
2022-08-21T08:48:18.809Z,14
2022-08-21T08:54:01.585Z,4
2022-08-21T08:59:47.125Z,0
2022-08-21T09:05:28.050Z,0
2022-08-21T09:11:08.099Z,0
2022-08-21T09:16:54.267Z,0
2022-08-21T09:22:36.763Z,0
2022-08-21T09:28:29.936Z,0
2022-08-21T09:34:30.143Z,0
2022-08-21T09:40:11.288Z,2
2022-08-21T09:45:56.366Z,2
2022-08-21T09:51:44.531Z,0
2022-08-21T09:57:24.904Z,0
2022-08-21T10:03:05.346Z,0
2022-08-21T10:08:45.959Z,2
2022-08-21T10:14:27.713Z,0
2022-08-21T10:20:09.239Z,0
2022-08-21T10:26:14.847Z,0
2022-08-21T10:31:58.566Z,0
2022-08-21T10:43:02.285Z,0
2022-08-21T10:48:42.731Z,0
2022-08-21T10:54:26.019Z,0
2022-08-21T11:00:06.765Z,18
2022-08-21T11:05:51.377Z,2
2022-08-21T11:11:36.585Z,8
2022-08-21T11:17:22.600Z,0
2022-08-21T11:23:05.961Z,0
2022-08-21T11:28:53.588Z,0
2022-08-21T11:34:35.444Z,2
2022-08-21T11:40:16.267Z,0
2022-08-21T11:45:57.129Z,0
2022-08-21T11:51:37.501Z,0
2022-08-21T11:57:22.524Z,0
2022-08-21T12:03:03.170Z,0
2022-08-21T12:08:43.271Z,0
2022-08-21T12:20:04.527Z,2
2022-08-21T12:25:44.570Z,0
2022-08-21T12:31:26.794Z,0
2022-08-21T12:37:07.827Z,0
2022-08-21T12:42:59.509Z,2
2022-08-21T12:48:40.959Z,2
2022-08-21T12:54:21.763Z,8
2022-08-21T13:00:02.095Z,0
2022-08-21T13:05:42.485Z,0
2022-08-21T13:11:34.489Z,0
2022-08-21T13:17:26.666Z,0
2022-08-21T13:23:12.471Z,0
2022-08-21T13:28:53.602Z,0
2022-08-21T13:34:33.631Z,0
2022-08-21T13:40:16.746Z,12
2022-08-21T13:45:57.249Z,12
2022-08-21T13:51:38.781Z,14
2022-08-21T13:57:18.714Z,8
2022-08-21T14:03:01.889Z,12
2022-08-21T14:08:44.294Z,18
2022-08-21T14:14:24.498Z,18
2022-08-21T14:20:04.783Z,4
2022-08-21T14:25:45.892Z,4
2022-08-21T14:31:30.964Z,28
2022-08-21T14:37:11.419Z,10
2022-08-21T14:42:54.258Z,2
2022-08-21T14:48:37.993Z,0
2022-08-21T14:54:32.168Z,12
2022-08-21T15:00:13.556Z,58
2022-08-21T15:05:53.821Z,60
2022-08-21T15:11:43.562Z,62
2022-08-21T15:17:29.263Z,56
2022-08-21T15:23:15.996Z,58
2022-08-21T15:28:56.656Z,62
2022-08-21T15:34:37.246Z,56
2022-08-21T15:45:19.869Z,52
2022-08-21T15:51:01.671Z,50
2022-08-21T15:56:42.163Z,54
2022-08-21T16:02:22.090Z,56
2022-08-21T16:08:03.940Z,48
2022-08-21T16:13:47.842Z,46
2022-08-21T16:19:28.409Z,50
2022-08-21T16:25:09.644Z,60
2022-08-21T16:30:49.713Z,58
2022-08-21T16:36:30.416Z,54
2022-08-21T16:42:12.177Z,52
2022-08-21T16:47:53.898Z,62
2022-08-21T16:53:34.168Z,56
2022-08-21T16:59:17.947Z,60
2022-08-21T17:04:58.261Z,62
2022-08-21T17:10:38.127Z,60
2022-08-21T17:16:18.667Z,60
2022-08-21T17:21:58.782Z,60
2022-08-21T17:27:42.347Z,54
2022-08-21T17:33:22.984Z,60
2022-08-21T17:39:03.260Z,60
2022-08-21T17:44:46.590Z,46
2022-08-21T17:50:26.749Z,58
2022-08-21T17:56:06.979Z,64
2022-08-21T18:01:49.316Z,48
2022-08-21T18:07:33.905Z,52
2022-08-21T18:13:14.069Z,44
2022-08-21T18:18:54.684Z,50
2022-08-21T18:24:41.099Z,52
2022-08-21T18:30:24.084Z,50
2022-08-21T18:36:05.126Z,58
2022-08-21T18:46:46.150Z,122
2022-08-21T18:52:33.814Z,56
2022-08-21T18:58:14.756Z,50
2022-08-21T19:03:59.555Z,48
2022-08-21T19:14:46.524Z,108
2022-08-21T19:20:27.648Z,44
2022-08-21T19:26:08.161Z,58
2022-08-21T19:31:48.592Z,64
2022-08-21T19:37:32.637Z,52
2022-08-21T19:43:23.749Z,56
2022-08-21T19:54:47.450Z,58
2022-08-21T20:00:36.794Z,52
2022-08-21T20:06:24.903Z,58
2022-08-21T20:12:10.923Z,42
2022-08-21T20:17:51.120Z,48
2022-08-21T20:23:34.538Z,50
2022-08-21T20:29:39.536Z,46
2022-08-21T20:35:26.347Z,54
2022-08-21T22:47:40.322Z,54
2022-08-21T22:53:20.517Z,48
2022-08-21T22:59:01.391Z,60
2022-08-21T23:04:45.036Z,52
2022-08-21T23:10:28.907Z,52
2022-08-21T23:16:19.421Z,46
2022-08-21T23:22:04.668Z,54
2022-08-21T23:27:44.846Z,52
2022-08-21T23:33:38.896Z,52
2022-08-21T23:39:20.855Z,56
